CST,Max TemperatureF,Mean TemperatureF,Min TemperatureF,Max Dew PointF,MeanDew PointF,Min DewpointF,Max Humidity, Mean Humidity, Min Humidity, Max Sea Level PressureIn, Mean Sea Level PressureIn, Min Sea Level PressureIn, Max VisibilityMiles, Mean VisibilityMiles, Min VisibilityMiles, Max Wind SpeedMPH, Mean Wind SpeedMPH, Max Gust SpeedMPH,PrecipitationIn, CloudCover, Events, WindDirDegrees
2012-11-1,45,36,30,32,25,15,89,64,44,30.00,29.91,29.86,10,10,10,17,9,18,0.00,6,,322
2012-11-2,42,33,24,26,23,21,91,71,47,30.21,30.12,30.02,10,10,10,10,6,,0.00,0,,342
2012-11-3,39,34,28,28,25,22,78,71,62,30.29,30.25,30.22,10,10,10,12,6,,0.00,7,,97
2012-11-4,44,33,23,27,25,20,89,73,51,30.29,30.25,30.21,10,10,10,8,3,,0.00,1,,85
2012-11-5,39,30,21,27,24,20,92,78,58,30.28,30.21,30.09,10,10,6,10,5,,0.00,1,,108
2012-11-6,33,32,30,33,31,28,100,95,82,30.05,29.87,29.78,9,2,0,14,8,,0.04,8,Fog-Snow,172
2012-11-7,41,36,32,34,32,30,100,92,76,30.16,30.04,29.90,10,5,1,8,3,,0.00,8,,359
2012-11-8,50,41,32,36,34,30,96,81,57,30.15,30.07,29.99,10,9,5,16,6,22,0.00,3,,188
2012-11-9,45,38,32,39,35,30,96,86,71,30.11,30.06,30.02,10,7,2,15,7,23,0.00,5,,87
2012-11-10,62,50,39,52,44,37,100,90,67,30.04,29.82,29.67,10,5,2,17,13,25,0.06,6,Rain,115
2012-11-11,63,44,26,54,42,21,100,91,56,29.89,29.70,29.63,10,7,2,18,13,29,0.59,8,Rain,254
2012-11-12,25,22,19,19,13,10,78,69,62,30.30,30.03,29.90,10,10,6,20,14,29,0.00,7,Snow,269
2012-11-13,36,27,18,22,17,14,88,69,46,30.45,30.40,30.26,10,10,8,10,7,17,0.00,1,,235
2012-11-14,48,39,30,30,26,21,79,67,48,30.41,30.33,30.27,10,10,10,13,8,18,0.00,4,,176
2012-11-15,51,42,32,32,29,22,79,67,48,30.41,30.28,30.22,10,10,10,12,8,,0.00,3,,225
2012-11-16,41,33,25,34,27,20,100,81,64,30.53,30.46,30.41,10,8,1,12,6,,0.00,2,,101
2012-11-17,52,43,34,37,35,32,100,83,53,30.47,30.42,30.38,10,5,0,15,9,22,0.00,2,Fog,168
2012-11-18,55,44,34,34,32,30,89,67,40,30.37,30.30,30.24,10,8,4,15,9,,0.00,1,,163
2012-11-19,48,44,39,38,35,32,82,71,61,30.23,30.14,30.08,10,9,7,13,6,,0.00,7,,159
2012-11-20,55,42,30,41,35,30,100,88,57,30.16,30.12,30.06,9,4,0,9,1,,0.00,1,Fog,286
2012-11-21,60,44,28,41,36,27,100,82,47,30.14,30.02,29.88,10,6,0,16,6,22,0.00,1,Fog,192
2012-11-22,62,46,30,43,36,23,87,68,48,29.86,29.72,29.61,10,10,5,25,14,37,0.00,3,Snow,231
2012-11-23,28,24,19,25,17,13,86,76,68,30.28,30.01,29.77,10,8,2,28,20,39,0.00,8,Snow,303
2012-11-24,27,22,17,21,13,10,81,68,53,30.28,30.11,29.82,10,9,2,14,9,,0.00,6,Snow,242
2012-11-25,32,28,23,21,19,15,86,72,61,30.10,29.91,29.79,10,9,2,18,9,25,0.00,7,Snow,280
2012-11-26,25,18,10,21,11,5,86,71,50,30.41,30.26,30.05,10,9,6,14,8,18,0.00,3,Snow,312
2012-11-27,30,20,9,15,10,5,88,65,45,30.39,30.27,30.17,10,10,10,13,7,,0.00,3,,229
2012-11-28,30,26,21,20,18,15,86,74,61,30.35,30.25,30.16,10,10,8,12,7,21,0.00,3,,275
2012-11-29,41,31,21,27,24,19,89,74,55,30.18,30.15,30.10,10,9,6,14,6,22,0.00,3,,94
2012-11-30,30,28,26,31,28,24,100,94,85,30.23,30.18,30.11,10,5,0,18,13,24,0.00,8,Fog,97